Time;durP1;ratioP1;P1;durP2;ratioP2;P2;SDS_P1;SDS_P2;PMS_P1;PMS_P2;Temp;Humidity;BMP_temperature;BMP_pressure;BME280_temperature;BME280_humidity;BME280_pressure;Samples;Min_cycle;Max_cycle;Signal;HPM_P1;HPM_P2
2022/03/12 00:01:47;;;;;;;10.93;7.57;;;3.90;73.50;;;;;;5015892;28;20276;-68
2022/03/12 00:04:15;;;;;;;13.23;8.23;;;3.90;72.70;;;;;;5007380;28;20687;-68
2022/03/12 00:06:42;;;;;;;15.87;6.73;;;3.80;72.00;;;;;;5017500;28;20202;-68
2022/03/12 00:09:09;;;;;;;11.37;6.83;;;3.80;71.70;;;;;;5022034;28;20228;-68
2022/03/12 00:11:40;;;;;;;12.60;8.23;;;3.70;71.80;;;;;;5022087;28;20236;-68
2022/03/12 00:14:07;;;;;;;14.23;7.40;;;3.70;72.10;;;;;;5007058;28;20213;-68
2022/03/12 00:16:34;;;;;;;10.87;7.50;;;3.60;72.20;;;;;;5026539;28;20649;-68
2022/03/12 00:19:05;;;;;;;17.53;7.73;;;3.60;72.40;;;;;;5029182;28;20214;-68
2022/03/12 00:21:42;;;;;;;14.93;8.33;;;3.60;72.40;;;;;;5012166;28;20225;-68
2022/03/12 00:24:15;;;;;;;19.80;7.70;;;3.50;72.70;;;;;;5027922;28;20235;-68
2022/03/12 00:26:43;;;;;;;8.80;6.43;;;3.50;72.90;;;;;;5000184;28;20208;-68
2022/03/12 00:29:15;;;;;;;10.30;7.20;;;3.40;73.20;;;;;;5018483;28;20202;-68
2022/03/12 00:31:46;;;;;;;11.80;7.50;;;3.40;73.40;;;;;;5001140;28;20244;-68
2022/03/12 00:34:14;;;;;;;18.17;7.77;;;3.40;73.50;;;;;;5022792;28;20231;-68
2022/03/12 00:36:42;;;;;;;11.30;7.17;;;3.40;73.80;;;;;;5022237;28;20685;-68
2022/03/12 00:39:11;;;;;;;10.43;6.53;;;3.40;73.90;;;;;;5025789;28;20208;-68
2022/03/12 00:41:42;;;;;;;11.43;6.80;;;3.40;73.70;;;;;;5028378;28;20238;-68
2022/03/12 00:44:17;;;;;;;14.53;7.47;;;3.30;73.50;;;;;;5023331;28;20593;-68
2022/03/12 00:46:46;;;;;;;14.50;7.30;;;3.30;73.60;;;;;;5023547;28;20219;-68
2022/03/12 00:49:13;;;;;;;11.77;7.10;;;3.30;73.70;;;;;;5000087;28;20209;-68
2022/03/12 00:51:41;;;;;;;10.20;6.90;;;3.30;73.80;;;;;;5000506;28;20229;-68
2022/03/12 00:54:09;;;;;;;10.93;7.50;;;3.20;73.90;;;;;;5026170;28;20646;-68
2022/03/12 00:56:39;;;;;;;10.63;7.27;;;3.20;74.00;;;;;;5027437;28;20210;-68
2022/03/12 00:59:07;;;;;;;9.87;6.53;;;3.20;73.90;;;;;;5027204;28;20200;-68
2022/03/12 01:01:34;;;;;;;12.23;6.90;;;3.20;73.70;;;;;;5032296;28;20212;-68
2022/03/12 01:04:02;;;;;;;15.70;8.50;;;3.10;73.60;;;;;;5014672;28;20236;-68
2022/03/12 01:06:29;;;;;;;21.57;8.27;;;3.10;73.80;;;;;;5031888;28;20309;-68
2022/03/12 01:08:56;;;;;;;11.93;7.13;;;3.10;74.30;;;;;;5022219;28;20206;-68
2022/03/12 01:11:23;;;;;;;18.07;8.20;;;3.10;75.00;;;;;;5021380;28;20207;-68
2022/03/12 01:13:50;;;;;;;8.90;7.57;;;3.10;75.00;;;;;;5006091;28;20228;-68
2022/03/12 01:16:18;;;;;;;8.97;6.67;;;3.00;75.00;;;;;;5024640;28;20209;-68
2022/03/12 01:18:45;;;;;;;18.23;7.27;;;3.00;75.00;;;;;;5028114;28;20218;-68
2022/03/12 01:21:17;;;;;;;12.33;8.17;;;3.00;74.80;;;;;;5030202;28;20211;-68
2022/03/12 01:23:50;;;;;;;14.73;8.47;;;3.00;74.60;;;;;;5026442;28;20260;-68
2022/03/12 01:26:19;;;;;;;13.70;8.43;;;3.00;74.60;;;;;;5034935;28;20686;-68
2022/03/12 01:28:46;;;;;;;12.30;7.43;;;3.00;74.70;;;;;;5031013;28;20542;-68
2022/03/12 01:31:15;;;;;;;13.63;7.33;;;2.90;75.10;;;;;;5019123;28;20588;-68
2022/03/12 01:33:42;;;;;;;9.90;7.40;;;2.90;75.50;;;;;;5020056;28;20218;-68
2022/03/12 01:36:09;;;;;;;14.63;8.43;;;2.90;75.10;;;;;;5023896;28;20440;-68
2022/03/12 01:38:52;;;;;;;13.17;7.43;;;2.90;74.90;;;;;;5023974;28;20287;-68
2022/03/12 01:41:28;;;;;;;12.20;7.57;;;2.80;73.60;;;;;;5010236;28;20216;-68
2022/03/12 01:43:57;;;;;;;14.40;8.47;;;2.80;73.80;;;;;;5026630;28;20234;-68
2022/03/12 01:46:34;;;;;;;13.67;8.63;;;2.80;75.20;;;;;;5032831;28;20215;-68
2022/03/12 01:49:11;;;;;;;11.50;7.33;;;2.80;76.20;;;;;;5036037;28;20214;-68
2022/03/12 01:51:40;;;;;;;14.17;7.53;;;2.70;76.70;;;;;;5022644;28;20211;-68
2022/03/12 01:54:07;;;;;;;10.63;7.83;;;2.80;77.20;;;;;;5017047;28;20209;-68
2022/03/12 01:56:34;;;;;;;17.40;7.23;;;2.80;77.10;;;;;;5005803;28;20201;-68
2022/03/12 01:59:01;;;;;;;12.97;8.27;;;2.80;76.70;;;;;;5005954;28;20206;-68
2022/03/12 02:01:30;;;;;;;11.00;7.43;;;2.80;76.60;;;;;;5027714;28;20209;-68
2022/03/12 02:04:00;;;;;;;12.33;7.80;;;2.90;76.70;;;;;;5029222;28;20311;-68
2022/03/12 02:06:27;;;;;;;9.87;7.80;;;2.90;76.80;;;;;;5032278;28;20201;-68
2022/03/12 02:08:57;;;;;;;10.77;7.33;;;2.90;77.10;;;;;;5033737;28;20631;-68
2022/03/12 02:11:27;;;;;;;14.77;7.77;;;3.00;77.40;;;;;;5031199;28;20529;-68
2022/03/12 02:14:09;;;;;;;11.23;7.40;;;3.00;77.30;;;;;;5017486;28;20221;-68
2022/03/12 02:16:36;;;;;;;10.70;7.43;;;3.10;77.30;;;;;;5018120;28;20210;-68
2022/03/12 02:19:04;;;;;;;17.70;8.03;;;3.10;77.30;;;;;;5023533;28;20200;-68
2022/03/12 02:21:59;;;;;;;14.13;8.43;;;3.20;77.30;;;;;;5025066;28;20209;-68
2022/03/12 02:24:29;;;;;;;11.83;7.20;;;3.20;77.20;;;;;;5023849;28;20256;-67
2022/03/12 02:26:59;;;;;;;13.00;6.73;;;3.20;77.10;;;;;;5030843;28;20220;-67
2022/03/12 02:29:26;;;;;;;9.40;6.90;;;3.30;77.00;;;;;;5029414;28;20220;-67
2022/03/12 02:31:59;;;;;;;14.87;7.87;;;3.30;76.90;;;;;;5033021;28;20212;-67
2022/03/12 02:34:41;;;;;;;12.27;7.37;;;3.30;76.80;;;;;;5004065;28;20212;-67
2022/03/12 02:37:08;;;;;;;11.70;6.97;;;3.30;76.70;;;;;;5020102;28;20207;-67
2022/03/12 02:39:37;;;;;;;11.03;7.53;;;3.30;76.60;;;;;;5022171;28;20204;-67
2022/03/12 02:42:06;;;;;;;11.13;8.13;;;3.30;76.20;;;;;;5022350;28;20217;-67
2022/03/12 02:44:34;;;;;;;11.27;7.47;;;3.20;76.00;;;;;;4993727;28;20240;-67
2022/03/12 02:47:11;;;;;;;11.40;7.03;;;3.20;76.20;;;;;;5026347;28;20211;-67
2022/03/12 02:49:46;;;;;;;14.17;7.90;;;3.20;76.50;;;;;;5028059;28;20211;-67
2022/03/12 02:52:14;;;;;;;12.03;7.30;;;3.20;76.50;;;;;;5033851;28;20207;-67
2022/03/12 02:54:42;;;;;;;14.83;7.10;;;3.10;76.60;;;;;;5019856;28;20283;-67
2022/03/12 02:57:10;;;;;;;18.43;8.83;;;3.10;76.70;;;;;;5018752;28;20208;-67
2022/03/12 02:59:43;;;;;;;12.63;7.10;;;3.10;76.80;;;;;;5020605;28;20238;-67
2022/03/12 03:02:11;;;;;;;11.33;7.80;;;3.10;76.80;;;;;;5022229;28;20615;-67
2022/03/12 03:04:40;;;;;;;10.13;7.27;;;3.10;76.80;;;;;;5023058;28;20236;-67
2022/03/12 03:07:09;;;;;;;11.13;7.10;;;3.10;76.80;;;;;;5027457;28;20209;-67
2022/03/12 03:09:37;;;;;;;12.13;7.70;;;3.00;76.30;;;;;;5025677;28;20203;-67
2022/03/12 03:12:09;;;;;;;12.90;7.83;;;3.00;76.20;;;;;;5032245;28;20200;-67
2022/03/12 03:14:43;;;;;;;16.70;8.37;;;2.90;77.20;;;;;;5034028;28;20224;-67
2022/03/12 03:17:12;;;;;;;13.73;7.83;;;2.90;76.90;;;;;;5015527;28;20202;-67
2022/03/12 03:19:39;;;;;;;10.07;6.57;;;2.90;77.20;;;;;;5019291;28;20215;-67
2022/03/12 03:22:07;;;;;;;16.30;7.00;;;2.80;77.30;;;;;;5020814;28;20668;-67
2022/03/12 03:24:35;;;;;;;12.70;7.77;;;2.70;76.90;;;;;;5021959;28;20672;-67
2022/03/12 03:27:02;;;;;;;14.17;7.63;;;2.70;76.70;;;;;;5023328;28;20215;-67
2022/03/12 03:29:32;;;;;;;11.13;7.07;;;2.60;76.80;;;;;;5025850;28;20214;-67
2022/03/12 03:32:02;;;;;;;12.57;7.13;;;2.60;77.30;;;;;;5022855;28;20570;-67
2022/03/12 03:34:33;;;;;;;14.47;7.23;;;2.50;77.60;;;;;;5015591;28;20207;-67
2022/03/12 03:37:00;;;;;;;15.03;7.43;;;2.50;77.80;;;;;;5027200;28;20213;-67
2022/03/12 03:39:27;;;;;;;14.00;8.63;;;2.50;78.00;;;;;;5014982;28;20554;-67
2022/03/12 03:41:54;;;;;;;10.80;7.53;;;2.50;78.30;;;;;;5021633;28;20267;-67
2022/03/12 03:44:29;;;;;;;10.77;7.57;;;2.50;78.00;;;;;;5021785;28;20234;-67
2022/03/12 03:46:56;;;;;;;11.87;7.23;;;2.40;77.60;;;;;;5021072;28;20193;-67
2022/03/12 03:49:24;;;;;;;12.00;7.87;;;2.40;77.40;;;;;;5026314;28;20230;-67
2022/03/12 03:51:52;;;;;;;12.43;6.93;;;2.40;77.50;;;;;;5027481;28;20236;-67
2022/03/12 03:54:20;;;;;;;11.40;7.73;;;2.30;77.70;;;;;;5026592;28;20224;-67
2022/03/12 03:56:47;;;;;;;11.03;7.10;;;2.30;77.70;;;;;;5033371;28;20208;-67
2022/03/12 03:59:14;;;;;;;19.07;8.27;;;2.30;77.80;;;;;;5021236;28;20216;-67
2022/03/12 04:01:41;;;;;;;10.40;7.33;;;2.30;78.00;;;;;;5018272;28;20204;-67
2022/03/12 04:04:12;;;;;;;10.20;7.90;;;2.20;77.90;;;;;;5020520;28;20345;-67
2022/03/12 04:06:40;;;;;;;23.37;8.97;;;2.20;78.50;;;;;;5021972;28;20214;-67
2022/03/12 04:09:08;;;;;;;13.53;7.27;;;2.20;78.90;;;;;;5007845;28;20195;-67
2022/03/12 04:11:35;;;;;;;15.37;8.03;;;2.10;78.90;;;;;;5023743;28;20274;-67
2022/03/12 04:14:05;;;;;;;11.97;7.77;;;2.10;79.00;;;;;;5013607;28;20212;-67
2022/03/12 04:16:33;;;;;;;15.17;7.90;;;2.10;79.00;;;;;;5013463;28;20625;-67
2022/03/12 04:19:03;;;;;;;11.00;7.57;;;2.10;78.80;;;;;;5034206;28;20199;-68
2022/03/12 04:21:30;;;;;;;11.77;7.50;;;2.10;78.00;;;;;;5022097;28;20641;-67
2022/03/12 04:23:59;;;;;;;15.63;7.83;;;2.00;77.80;;;;;;5001951;28;20775;-67
2022/03/12 04:26:26;;;;;;;11.50;7.80;;;1.90;78.10;;;;;;5020539;28;20235;-67
2022/03/12 04:28:53;;;;;;;12.10;7.13;;;1.90;78.50;;;;;;5023260;28;20210;-67
2022/03/12 04:31:21;;;;;;;17.20;8.17;;;1.90;78.50;;;;;;5025953;28;20197;-67
2022/03/12 04:33:48;;;;;;;14.63;7.83;;;1.90;78.50;;;;;;5029180;28;20207;-67
2022/03/12 04:36:15;;;;;;;11.17;7.47;;;1.90;78.50;;;;;;5028522;28;20200;-67
2022/03/12 04:38:42;;;;;;;15.97;7.70;;;1.90;78.80;;;;;;5026703;28;20200;-67
2022/03/12 04:41:11;;;;;;;11.23;7.70;;;1.90;78.50;;;;;;5026957;28;20235;-67
2022/03/12 04:43:38;;;;;;;10.23;7.03;;;1.90;78.70;;;;;;5016153;28;20220;-67
2022/03/12 04:46:05;;;;;;;12.10;6.57;;;1.90;78.80;;;;;;5017532;28;20207;-67
2022/03/12 04:48:32;;;;;;;10.63;7.20;;;1.90;78.90;;;;;;5021389;28;20214;-67
2022/03/12 04:50:59;;;;;;;8.90;7.37;;;1.80;77.90;;;;;;5023442;28;20211;-67
2022/03/12 04:53:28;;;;;;;15.00;8.00;;;1.80;77.30;;;;;;5025579;28;20217;-67
2022/03/12 04:55:55;;;;;;;12.93;7.30;;;1.70;77.30;;;;;;5024288;28;20659;-67
2022/03/12 04:58:22;;;;;;;12.47;7.97;;;1.70;77.80;;;;;;5030613;28;20263;-67
2022/03/12 05:00:50;;;;;;;10.77;7.20;;;1.60;78.30;;;;;;5015321;28;20243;-67
2022/03/12 05:03:20;;;;;;;11.07;6.83;;;1.60;78.30;;;;;;5002081;28;20221;-67
2022/03/12 05:05:51;;;;;;;10.93;7.63;;;1.60;78.30;;;;;;5017680;28;20283;-67
2022/03/12 05:08:30;;;;;;;13.23;8.00;;;1.60;78.70;;;;;;5019735;28;20214;-67
2022/03/12 05:10:57;;;;;;;11.43;7.53;;;1.60;78.70;;;;;;5020190;28;20211;-67
2022/03/12 05:13:29;;;;;;;15.57;8.57;;;1.50;78.60;;;;;;5006884;28;20203;-67
2022/03/12 05:16:03;;;;;;;12.03;8.40;;;1.50;79.10;;;;;;5012807;28;20265;-67
2022/03/12 05:18:32;;;;;;;17.67;8.70;;;1.50;79.50;;;;;;5029330;28;20226;-67
2022/03/12 05:20:59;;;;;;;11.47;8.17;;;1.50;79.80;;;;;;5030613;28;20204;-67
2022/03/12 05:23:29;;;;;;;10.63;7.90;;;1.50;80.10;;;;;;5021103;28;20207;-67
2022/03/12 05:25:56;;;;;;;15.07;8.50;;;1.50;80.60;;;;;;5015995;28;20213;-67
2022/03/12 05:28:26;;;;;;;13.80;8.33;;;1.50;81.00;;;;;;5018263;28;20203;-67
2022/03/12 05:31:03;;;;;;;14.07;7.00;;;1.50;81.10;;;;;;5018193;28;20200;-67
2022/03/12 05:33:30;;;;;;;11.20;7.80;;;1.50;81.30;;;;;;5023134;28;20302;-67
2022/03/12 05:35:58;;;;;;;15.87;9.13;;;1.50;81.10;;;;;;5021624;28;20204;-67
2022/03/12 05:38:32;;;;;;;10.73;7.10;;;1.50;80.50;;;;;;5011156;28;20206;-67
2022/03/12 05:40:59;;;;;;;11.17;7.00;;;1.50;80.20;;;;;;5029774;28;20204;-67
2022/03/12 05:43:27;;;;;;;14.07;7.50;;;1.50;80.00;;;;;;5028669;28;20210;-67
2022/03/12 05:45:56;;;;;;;16.27;8.37;;;1.50;79.90;;;;;;5005878;28;20236;-67
2022/03/12 05:48:24;;;;;;;13.67;7.77;;;1.50;80.00;;;;;;5019636;28;20650;-67
2022/03/12 05:50:51;;;;;;;11.30;6.73;;;1.50;80.10;;;;;;5005989;28;20224;-67
2022/03/12 05:53:19;;;;;;;12.00;7.57;;;1.50;80.10;;;;;;5025484;28;20657;-67
2022/03/12 05:55:47;;;;;;;9.47;6.43;;;1.50;80.00;;;;;;5009213;28;20211;-67
2022/03/12 05:58:19;;;;;;;10.97;7.93;;;1.60;79.90;;;;;;5029345;28;20215;-67
2022/03/12 06:00:54;;;;;;;10.30;7.60;;;1.70;79.40;;;;;;5029109;28;20239;-67
2022/03/12 06:03:23;;;;;;;10.40;7.53;;;1.80;78.70;;;;;;5033987;28;20271;-67
2022/03/12 06:05:55;;;;;;;11.97;7.57;;;2.00;77.70;;;;;;5029314;28;20258;-67
2022/03/12 06:08:23;;;;;;;13.73;8.23;;;2.20;76.70;;;;;;5019235;28;20215;-67
2022/03/12 06:10:54;;;;;;;13.77;7.70;;;2.30;76.00;;;;;;5018765;28;20215;-67
2022/03/12 06:13:25;;;;;;;12.20;7.43;;;2.40;75.90;;;;;;5022315;28;20196;-67
2022/03/12 06:16:00;;;;;;;12.60;8.33;;;2.50;75.80;;;;;;5024350;28;20208;-67
2022/03/12 06:18:29;;;;;;;11.30;8.27;;;2.70;75.70;;;;;;5027125;28;20250;-67
2022/03/12 06:20:57;;;;;;;14.70;9.30;;;2.90;75.20;;;;;;5030423;28;20248;-67
2022/03/12 06:23:25;;;;;;;13.33;7.97;;;3.10;74.30;;;;;;5031420;28;20210;-67
2022/03/12 06:25:53;;;;;;;11.80;7.90;;;3.30;74.00;;;;;;5028026;28;20539;-67
2022/03/12 06:28:21;;;;;;;12.57;8.10;;;3.50;73.80;;;;;;5007044;28;20221;-67
2022/03/12 06:30:53;;;;;;;13.33;9.00;;;3.60;73.10;;;;;;5018312;28;20639;-67
2022/03/12 06:33:22;;;;;;;14.53;10.43;;;3.80;72.20;;;;;;5021517;28;20201;-67
2022/03/12 06:35:51;;;;;;;17.10;9.80;;;4.00;71.90;;;;;;5021961;28;20292;-67
2022/03/12 06:38:19;;;;;;;14.80;10.03;;;4.10;72.20;;;;;;5023443;28;20203;-67
2022/03/12 06:40:46;;;;;;;13.73;9.93;;;4.20;72.40;;;;;;5024233;28;20211;-67
2022/03/12 06:43:17;;;;;;;19.40;13.30;;;4.30;72.50;;;;;;5028404;28;20224;-67
2022/03/12 06:45:44;;;;;;;20.13;12.90;;;4.30;72.70;;;;;;5033163;28;20236;-67
2022/03/12 06:48:11;;;;;;;24.37;14.23;;;4.40;72.90;;;;;;5014436;28;20197;-67
2022/03/12 06:50:38;;;;;;;20.87;12.27;;;4.40;73.40;;;;;;5017114;28;20207;-67
2022/03/12 06:53:06;;;;;;;20.60;13.90;;;4.30;74.00;;;;;;5019756;28;20204;-67
2022/03/12 06:55:34;;;;;;;23.07;13.83;;;4.30;74.70;;;;;;5022045;28;20209;-67
2022/03/12 06:58:01;;;;;;;19.30;12.93;;;4.30;74.80;;;;;;5022191;28;20593;-67
2022/03/12 07:00:31;;;;;;;24.60;12.80;;;4.40;74.90;;;;;;5024490;28;20258;-67
2022/03/12 07:02:58;;;;;;;21.83;13.70;;;4.40;74.40;;;;;;5025077;28;20354;-67
2022/03/12 07:05:25;;;;;;;21.67;13.87;;;4.40;74.70;;;;;;5028407;28;20217;-67
2022/03/12 07:07:54;;;;;;;18.13;13.10;;;4.30;74.80;;;;;;5029685;28;20655;-67
2022/03/12 07:10:22;;;;;;;19.63;12.70;;;4.30;75.00;;;;;;5029398;28;20206;-67
2022/03/12 07:12:50;;;;;;;18.50;13.30;;;4.30;74.70;;;;;;5018168;28;20212;-67
2022/03/12 07:15:18;;;;;;;17.07;12.50;;;4.30;74.70;;;;;;4999340;28;20224;-67
2022/03/12 07:17:45;;;;;;;20.07;13.00;;;4.30;74.90;;;;;;5014121;28;20649;-67
2022/03/12 07:20:14;;;;;;;19.23;12.00;;;4.40;75.20;;;;;;5007263;28;20210;-67
2022/03/12 07:22:42;;;;;;;18.80;12.23;;;4.50;74.80;;;;;;5009796;28;20217;-67
2022/03/12 07:25:11;;;;;;;24.27;13.53;;;4.50;74.70;;;;;;5010393;28;20240;-67
2022/03/12 07:27:38;;;;;;;17.77;12.03;;;4.70;74.10;;;;;;5028076;28;20205;-67
2022/03/12 07:30:08;;;;;;;18.20;10.63;;;4.80;75.00;;;;;;5033666;28;20205;-67
2022/03/12 07:32:36;;;;;;;24.67;11.53;;;4.90;73.90;;;;;;5006270;28;20682;-67
2022/03/12 07:35:04;;;;;;;15.83;11.27;;;5.00;73.30;;;;;;5018207;28;20206;-67
2022/03/12 07:37:32;;;;;;;18.07;12.73;;;5.10;73.60;;;;;;5019484;28;20217;-67
2022/03/12 07:39:59;;;;;;;16.53;11.90;;;5.30;74.20;;;;;;5020013;28;20552;-67
2022/03/12 07:42:26;;;;;;;17.10;11.87;;;5.50;74.30;;;;;;4992110;28;20211;-68
2022/03/12 07:44:53;;;;;;;15.43;10.90;;;5.60;71.80;;;;;;5027139;28;20229;-68
2022/03/12 07:47:20;;;;;;;14.73;10.57;;;5.80;70.60;;;;;;5029276;28;20207;-68
2022/03/12 07:49:47;;;;;;;17.50;11.00;;;5.90;70.80;;;;;;5024759;28;20202;-68
2022/03/12 07:52:15;;;;;;;19.63;10.27;;;6.10;69.90;;;;;;5030080;28;20202;-68
2022/03/12 07:54:43;;;;;;;13.90;10.50;;;6.20;67.90;;;;;;5015847;28;20209;-68
2022/03/12 07:57:10;;;;;;;18.20;11.37;;;6.30;67.10;;;;;;5018342;28;20594;-68
2022/03/12 07:59:37;;;;;;;15.30;10.87;;;6.40;66.90;;;;;;5021371;28;20308;-68
2022/03/12 08:02:04;;;;;;;13.50;9.23;;;6.50;65.10;;;;;;5018811;28;20229;-68
2022/03/12 08:04:33;;;;;;;19.40;11.13;;;6.50;65.40;;;;;;5025258;28;20257;-68
2022/03/12 08:07:02;;;;;;;16.80;10.00;;;6.60;65.10;;;;;;5008376;28;20675;-68
2022/03/12 08:09:31;;;;;;;18.73;10.37;;;6.70;66.20;;;;;;5030271;28;20293;-68
2022/03/12 08:12:00;;;;;;;13.93;9.83;;;6.90;64.40;;;;;;5032668;28;20214;-68
2022/03/12 08:14:28;;;;;;;14.77;10.27;;;7.00;63.50;;;;;;5009245;28;20211;-68
2022/03/12 08:16:55;;;;;;;15.07;10.77;;;7.20;63.20;;;;;;5018090;28;20218;-68
2022/03/12 08:19:24;;;;;;;17.70;10.77;;;7.40;62.60;;;;;;5019630;28;20214;-68
2022/03/12 08:21:52;;;;;;;15.87;9.40;;;7.50;60.50;;;;;;5018833;28;20225;-68
2022/03/12 08:24:21;;;;;;;18.70;11.30;;;7.50;60.10;;;;;;5006373;28;20250;-68
2022/03/12 08:26:49;;;;;;;15.83;10.10;;;7.60;61.20;;;;;;5022399;28;20672;-68
2022/03/12 08:29:18;;;;;;;15.40;10.23;;;7.70;62.20;;;;;;5027429;28;20202;-68
2022/03/12 08:31:46;;;;;;;13.00;9.80;;;7.80;61.10;;;;;;5025011;28;20202;-68
2022/03/12 08:34:14;;;;;;;15.77;10.97;;;8.00;61.50;;;;;;5032315;28;20199;-68
2022/03/12 08:36:42;;;;;;;15.40;9.20;;;8.20;61.60;;;;;;5019745;28;20203;-68
2022/03/12 08:39:10;;;;;;;12.17;9.33;;;8.50;59.00;;;;;;5000817;28;20535;-68
2022/03/12 08:41:38;;;;;;;14.77;9.60;;;8.60;59.20;;;;;;5016488;28;20295;-68
2022/03/12 08:44:09;;;;;;;15.73;10.03;;;8.80;58.00;;;;;;5005663;28;20273;-68
2022/03/12 08:46:37;;;;;;;14.33;9.13;;;8.90;56.90;;;;;;5022431;28;20227;-68
2022/03/12 08:49:05;;;;;;;14.37;9.03;;;9.00;57.60;;;;;;5026316;28;20295;-68
2022/03/12 08:51:32;;;;;;;14.60;9.60;;;9.20;57.10;;;;;;5021289;28;20231;-68
2022/03/12 08:54:01;;;;;;;13.43;8.53;;;9.30;57.70;;;;;;5030323;28;20203;-68
2022/03/12 08:56:28;;;;;;;12.53;8.90;;;9.50;56.90;;;;;;5024816;28;20214;-68
2022/03/12 08:58:55;;;;;;;13.97;8.53;;;9.60;55.90;;;;;;5014534;28;20618;-68
2022/03/12 09:01:22;;;;;;;13.60;9.90;;;9.80;56.10;;;;;;5017465;28;20322;-68
2022/03/12 09:03:54;;;;;;;14.17;9.17;;;9.90;55.80;;;;;;5018545;28;20211;-68
2022/03/12 09:06:23;;;;;;;15.20;9.20;;;10.10;55.00;;;;;;5019914;28;20224;-68
2022/03/12 09:08:50;;;;;;;14.97;8.47;;;10.20;54.40;;;;;;5021985;28;20216;-68
2022/03/12 09:11:18;;;;;;;11.17;8.63;;;10.20;53.80;;;;;;5026711;28;20208;-68
2022/03/12 09:13:46;;;;;;;13.47;9.50;;;10.20;55.10;;;;;;5032405;28;20284;-68
2022/03/12 09:16:14;;;;;;;10.73;9.07;;;10.30;54.20;;;;;;5013343;28;20200;-68
2022/03/12 09:18:44;;;;;;;12.27;9.17;;;10.40;54.60;;;;;;5008714;28;20265;-68
2022/03/12 09:21:11;;;;;;;13.73;8.57;;;10.50;53.70;;;;;;5003188;28;20217;-68
2022/03/12 09:23:38;;;;;;;12.97;9.43;;;10.70;52.90;;;;;;5004040;28;20263;-68
2022/03/12 09:26:06;;;;;;;10.87;9.30;;;10.80;52.30;;;;;;5022492;28;20669;-68
2022/03/12 09:28:34;;;;;;;15.17;9.00;;;10.80;52.50;;;;;;5026204;28;20273;-68
2022/03/12 09:31:04;;;;;;;11.13;8.77;;;10.90;51.20;;;;;;5025237;28;20213;-68
2022/03/12 09:33:31;;;;;;;11.40;9.50;;;10.90;53.00;;;;;;5031200;28;20241;-68
2022/03/12 09:35:58;;;;;;;13.50;8.63;;;11.00;51.20;;;;;;5032819;28;20220;-68
2022/03/12 09:38:25;;;;;;;12.47;9.57;;;11.00;52.40;;;;;;5031814;28;20205;-68
2022/03/12 09:40:52;;;;;;;18.40;9.50;;;11.10;52.00;;;;;;5019054;28;20205;-68
2022/03/12 09:43:20;;;;;;;12.43;9.60;;;11.20;52.80;;;;;;5019154;28;20206;-68
2022/03/12 09:45:47;;;;;;;13.77;9.37;;;11.30;53.40;;;;;;5024591;28;20233;-68
2022/03/12 09:48:18;;;;;;;13.83;10.10;;;11.40;50.90;;;;;;5023438;28;20298;-68
2022/03/12 09:50:46;;;;;;;15.03;9.90;;;11.50;49.90;;;;;;5028003;28;20210;-68
2022/03/12 09:53:13;;;;;;;13.60;9.00;;;11.60;49.80;;;;;;5005508;28;20536;-68
2022/03/12 09:55:40;;;;;;;16.57;9.63;;;11.50;50.50;;;;;;5032269;28;20525;-68
2022/03/12 09:58:07;;;;;;;12.60;9.97;;;11.60;51.60;;;;;;5032343;28;20209;-68
2022/03/12 10:00:34;;;;;;;14.27;10.10;;;11.60;51.50;;;;;;5033345;28;20261;-68
2022/03/12 10:03:04;;;;;;;14.97;9.90;;;11.70;51.00;;;;;;5025421;28;20247;-68
2022/03/12 10:05:32;;;;;;;14.10;10.17;;;11.80;49.80;;;;;;5025338;28;20258;-68
2022/03/12 10:08:00;;;;;;;14.93;10.53;;;11.90;50.80;;;;;;5026436;28;20644;-68
2022/03/12 10:10:28;;;;;;;15.07;11.07;;;12.00;50.60;;;;;;5027571;28;20272;-68
2022/03/12 10:12:56;;;;;;;16.03;10.07;;;12.00;48.40;;;;;;5026197;28;20214;-68
2022/03/12 10:15:23;;;;;;;20.13;12.27;;;12.00;48.00;;;;;;5010108;28;20211;-68
2022/03/12 10:17:51;;;;;;;14.47;9.77;;;12.10;47.80;;;;;;5024587;28;20213;-68
2022/03/12 10:20:23;;;;;;;18.90;11.07;;;12.10;47.40;;;;;;4995545;28;20254;-68
2022/03/12 10:22:53;;;;;;;18.93;10.47;;;12.20;48.50;;;;;;5025393;28;20233;-68
2022/03/12 10:25:21;;;;;;;15.00;11.83;;;12.20;48.40;;;;;;5023863;28;20887;-68
2022/03/12 10:27:48;;;;;;;15.33;11.13;;;12.30;47.60;;;;;;5021694;28;20207;-68
2022/03/12 10:30:16;;;;;;;14.23;11.50;;;12.40;46.70;;;;;;5027325;28;20214;-68
2022/03/12 10:32:45;;;;;;;15.33;10.27;;;12.50;46.10;;;;;;5009987;28;20648;-68
2022/03/12 10:35:18;;;;;;;14.33;10.00;;;12.50;45.40;;;;;;5024246;28;20271;-68
2022/03/12 10:37:48;;;;;;;15.80;11.90;;;12.50;46.10;;;;;;5009133;28;20202;-68
2022/03/12 10:40:21;;;;;;;15.20;11.60;;;12.50;45.00;;;;;;5026427;28;20229;-68
2022/03/12 10:42:54;;;;;;;16.43;10.90;;;12.60;44.80;;;;;;4997366;28;20643;-68
2022/03/12 10:45:30;;;;;;;16.83;11.00;;;12.70;44.70;;;;;;5024334;28;20616;-68
2022/03/12 10:48:02;;;;;;;15.40;10.60;;;12.80;44.10;;;;;;5023888;28;20691;-68
2022/03/12 10:50:37;;;;;;;17.17;11.27;;;12.90;42.30;;;;;;5024979;28;20208;-68
2022/03/12 10:53:07;;;;;;;17.23;11.43;;;12.90;42.30;;;;;;5022574;28;20207;-68
2022/03/12 10:55:38;;;;;;;16.17;12.10;;;12.80;43.40;;;;;;5022269;28;20696;-68
2022/03/12 10:58:15;;;;;;;16.83;11.03;;;12.70;41.40;;;;;;5026817;28;20211;-68
2022/03/12 11:00:42;;;;;;;17.57;12.33;;;12.60;44.20;;;;;;5026047;28;20247;-68
2022/03/12 11:03:12;;;;;;;16.90;11.43;;;12.70;44.70;;;;;;5021223;28;20242;-68
2022/03/12 11:05:42;;;;;;;18.03;12.47;;;12.70;42.90;;;;;;5009191;28;20283;-69
2022/03/12 11:08:26;;;;;;;15.83;10.50;;;12.80;41.00;;;;;;5022639;28;20199;-69
2022/03/12 11:11:13;;;;;;;16.17;11.43;;;12.80;41.70;;;;;;5023348;28;20198;-69
2022/03/12 11:13:50;;;;;;;17.00;11.97;;;12.80;43.30;;;;;;4998493;28;20228;-69
2022/03/12 11:16:35;;;;;;;14.27;11.37;;;12.90;44.40;;;;;;5005777;28;20547;-68
2022/03/12 11:19:07;;;;;;;17.17;11.60;;;12.90;43.40;;;;;;5023726;28;20204;-68
2022/03/12 11:21:44;;;;;;;16.53;11.77;;;12.90;43.30;;;;;;5021437;28;20199;-68
2022/03/12 11:24:24;;;;;;;16.00;11.77;;;13.00;43.40;;;;;;5025894;28;20633;-68
2022/03/12 11:26:58;;;;;;;14.53;10.73;;;13.00;42.70;;;;;;5022288;28;20306;-68
2022/03/12 11:29:28;;;;;;;17.80;11.97;;;13.20;43.40;;;;;;5019780;28;20687;-68
2022/03/12 11:32:09;;;;;;;17.57;11.60;;;13.40;44.10;;;;;;5021772;28;20236;-68
2022/03/12 11:34:41;;;;;;;14.67;11.47;;;13.60;43.00;;;;;;5015679;28;20203;-68
2022/03/12 11:37:15;;;;;;;16.13;11.50;;;13.70;42.20;;;;;;5026826;28;20205;-68
2022/03/12 11:39:51;;;;;;;14.50;11.93;;;13.50;42.30;;;;;;4999173;28;20336;-69
2022/03/12 11:42:20;;;;;;;15.73;12.13;;;13.40;42.90;;;;;;5023271;28;20200;-69
2022/03/12 11:44:52;;;;;;;16.83;12.23;;;13.30;41.80;;;;;;5020604;28;20236;-69
2022/03/12 11:47:23;;;;;;;16.47;12.00;;;13.10;42.10;;;;;;5006840;28;20276;-69
2022/03/12 11:49:52;;;;;;;18.70;11.23;;;13.00;41.30;;;;;;5020233;28;20209;-69
2022/03/12 11:52:20;;;;;;;15.70;11.90;;;12.80;43.50;;;;;;5022909;28;20237;-69
2022/03/12 11:54:52;;;;;;;18.77;12.70;;;12.70;44.70;;;;;;5023818;28;20261;-69
2022/03/12 11:57:27;;;;;;;16.90;11.20;;;12.70;43.00;;;;;;5016420;28;20262;-69
2022/03/12 11:59:56;;;;;;;14.53;11.40;;;12.90;43.50;;;;;;5027403;28;20240;-68
2022/03/12 12:02:35;;;;;;;17.33;12.67;;;12.90;43.80;;;;;;5003838;28;20644;-68
2022/03/12 12:05:11;;;;;;;16.40;11.60;;;12.90;44.10;;;;;;5007247;28;20224;-68
2022/03/12 12:07:44;;;;;;;14.67;10.67;;;12.90;44.70;;;;;;5019169;28;20644;-69
2022/03/12 12:10:15;;;;;;;15.60;11.50;;;13.10;44.80;;;;;;5025541;28;20220;-69
2022/03/12 12:12:46;;;;;;;16.37;11.23;;;13.30;43.40;;;;;;5019408;28;20527;-69
2022/03/12 12:15:17;;;;;;;14.90;11.40;;;13.60;43.40;;;;;;5007673;28;20521;-69
2022/03/12 12:17:45;;;;;;;15.27;11.47;;;13.90;42.40;;;;;;5022857;28;20225;-69
2022/03/12 12:20:15;;;;;;;15.97;11.17;;;13.80;42.90;;;;;;5025435;28;20204;-69
2022/03/12 12:22:43;;;;;;;16.83;11.67;;;13.60;43.60;;;;;;5021157;28;20258;-69
2022/03/12 12:25:11;;;;;;;15.77;11.53;;;13.40;44.50;;;;;;5025538;28;20197;-69
2022/03/12 12:27:49;;;;;;;18.00;12.13;;;13.30;44.90;;;;;;5020463;28;20211;-69
2022/03/12 12:30:40;;;;;;;14.60;11.10;;;13.20;43.90;;;;;;5022976;28;20230;-69
2022/03/12 12:33:18;;;;;;;16.87;11.87;;;13.10;44.60;;;;;;5021001;28;20284;-69
2022/03/12 12:35:47;;;;;;;16.17;11.40;;;13.00;44.90;;;;;;5022435;28;20205;-69
2022/03/12 12:38:18;;;;;;;15.20;11.57;;;13.10;45.30;;;;;;5022795;28;20207;-69
2022/03/12 12:40:49;;;;;;;15.47;12.07;;;13.20;44.70;;;;;;5022312;28;20268;-69
2022/03/12 12:43:21;;;;;;;16.00;11.47;;;13.30;43.60;;;;;;5024053;28;20205;-69
2022/03/12 12:45:56;;;;;;;18.83;12.03;;;13.50;45.20;;;;;;5019700;28;20247;-69
2022/03/12 12:48:50;;;;;;;14.17;10.93;;;13.70;45.10;;;;;;5009599;28;20309;-69
2022/03/12 12:51:22;;;;;;;16.50;12.97;;;13.80;43.90;;;;;;5029573;28;20201;-69
2022/03/12 12:53:52;;;;;;;19.10;11.77;;;14.00;44.40;;;;;;5016362;28;20641;-69